Time;durP1;ratioP1;P1;durP2;ratioP2;P2;SDS_P1;SDS_P2;PMS_P1;PMS_P2;Temp;Humidity;BMP_temperature;BMP_pressure;BME280_temperature;BME280_humidity;BME280_pressure;Samples;Min_cycle;Max_cycle;Signal;HPM_P1;HPM_P2
2022/10/26 00:01:08;;;;;;;8.97;3.90;;;;;;;;;;5049393;28;20208;-78
2022/10/26 00:03:34;;;;;;;7.03;4.00;;;;;;;;;;5051381;28;20174;-77
2022/10/26 00:06:08;;;;;;;8.07;3.80;;;;;;;;;;5050743;28;20743;-77
2022/10/26 00:08:34;;;;;;;7.70;3.80;;;;;;;;;;5048150;28;20202;-76
2022/10/26 00:11:01;;;;;;;7.47;3.77;;;;;;;;;;5041639;28;20183;-76
2022/10/26 00:13:27;;;;;;;8.30;4.03;;;;;;;;;;5050353;28;20185;-76
2022/10/26 00:15:54;;;;;;;8.93;4.10;;;;;;;;;;5050511;28;20226;-77
2022/10/26 00:18:20;;;;;;;6.17;4.13;;;;;;;;;;5049291;28;20650;-76
2022/10/26 00:20:47;;;;;;;6.47;4.00;;;;;;;;;;5041541;28;20562;-76
2022/10/26 00:23:13;;;;;;;6.17;4.10;;;;;;;;;;5030969;28;20182;-76
2022/10/26 00:25:39;;;;;;;6.87;4.10;;;;;;;;;;5033241;28;20722;-76
2022/10/26 00:28:05;;;;;;;9.50;4.50;;;;;;;;;;5042631;28;20171;-76
2022/10/26 00:30:31;;;;;;;8.00;4.87;;;;;;;;;;5049475;28;20193;-76
2022/10/26 00:32:57;;;;;;;8.40;4.50;;;;;;;;;;5050857;28;20547;-76
2022/10/26 00:35:23;;;;;;;5.00;3.83;;;;;;;;;;5050796;28;20201;-76
2022/10/26 00:37:54;;;;;;;6.90;4.47;;;;;;;;;;5049874;28;20209;-77
2022/10/26 00:40:20;;;;;;;13.07;7.03;;;;;;;;;;5044583;28;20209;-76
2022/10/26 00:42:46;;;;;;;10.77;5.00;;;;;;;;;;5047406;28;20197;-76
2022/10/26 00:45:18;;;;;;;9.17;4.53;;;;;;;;;;5038480;28;20573;-77
2022/10/26 00:47:46;;;;;;;10.67;4.63;;;;;;;;;;5039408;28;20190;-78
2022/10/26 00:50:16;;;;;;;10.00;4.90;;;;;;;;;;5049990;28;20212;-77
2022/10/26 00:52:42;;;;;;;12.30;5.43;;;;;;;;;;5044918;28;20186;-76
2022/10/26 00:55:08;;;;;;;7.87;4.30;;;;;;;;;;5049949;28;20285;-76
2022/10/26 00:57:36;;;;;;;7.93;4.47;;;;;;;;;;5049873;28;20181;-77
2022/10/26 01:00:02;;;;;;;8.83;4.20;;;;;;;;;;5046133;28;20673;-76
2022/10/26 01:02:28;;;;;;;8.77;4.70;;;;;;;;;;5044840;28;20174;-77
2022/10/26 01:04:55;;;;;;;8.70;4.33;;;;;;;;;;5049597;28;20208;-77
2022/10/26 01:07:21;;;;;;;7.17;4.43;;;;;;;;;;5049926;28;20324;-76
2022/10/26 01:09:48;;;;;;;8.67;4.53;;;;;;;;;;5043418;28;20362;-77
2022/10/26 01:12:14;;;;;;;8.93;4.57;;;;;;;;;;5038190;28;20194;-76
2022/10/26 01:14:40;;;;;;;8.53;4.30;;;;;;;;;;5038269;28;20194;-77
2022/10/26 01:17:06;;;;;;;5.57;4.13;;;;;;;;;;5051031;28;20181;-78
2022/10/26 01:19:38;;;;;;;6.20;4.20;;;;;;;;;;5049289;28;20184;-78
2022/10/26 01:22:07;;;;;;;6.17;4.00;;;;;;;;;;5043565;28;20654;-78
2022/10/26 01:24:39;;;;;;;8.33;4.20;;;;;;;;;;5049318;28;20212;-77
2022/10/26 01:27:19;;;;;;;6.33;4.83;;;;;;;;;;5040029;28;20177;-76
2022/10/26 01:29:51;;;;;;;7.13;4.73;;;;;;;;;;5047108;28;20189;-77
2022/10/26 01:32:30;;;;;;;8.03;4.30;;;;;;;;;;5038182;28;20179;-76
2022/10/26 01:35:07;;;;;;;4.60;3.50;;;;;;;;;;5039402;28;20205;-77
2022/10/26 01:37:36;;;;;;;6.53;3.80;;;;;;;;;;5049131;28;20178;-76
2022/10/26 01:40:08;;;;;;;6.03;3.70;;;;;;;;;;5049161;28;20190;-76
2022/10/26 01:42:36;;;;;;;6.00;3.63;;;;;;;;;;5044290;28;20645;-78
2022/10/26 01:45:04;;;;;;;5.13;3.50;;;;;;;;;;5049375;28;20206;-76
2022/10/26 01:47:32;;;;;;;6.77;3.80;;;;;;;;;;5045880;28;20209;-76
2022/10/26 01:49:59;;;;;;;8.97;3.80;;;;;;;;;;5046476;28;20186;-77
2022/10/26 01:52:25;;;;;;;7.90;4.13;;;;;;;;;;5045055;28;20208;-79
2022/10/26 01:54:51;;;;;;;10.07;4.37;;;;;;;;;;5048855;28;20271;-78
2022/10/26 01:57:19;;;;;;;6.33;3.90;;;;;;;;;;5048727;28;20261;-78
2022/10/26 01:59:57;;;;;;;7.63;3.77;;;;;;;;;;5047407;28;20210;-77
2022/10/26 02:02:36;;;;;;;4.87;3.87;;;;;;;;;;5049036;28;20256;-76
2022/10/26 02:05:14;;;;;;;6.57;3.83;;;;;;;;;;5048614;28;20300;-78
2022/10/26 02:07:56;;;;;;;9.20;4.40;;;;;;;;;;5032848;28;20252;-77
2022/10/26 02:10:31;;;;;;;7.30;4.20;;;;;;;;;;5046879;28;20721;-76
2022/10/26 02:13:16;;;;;;;9.07;4.40;;;;;;;;;;5040464;28;20193;-77
2022/10/26 02:15:54;;;;;;;11.47;5.43;;;;;;;;;;5046613;28;20214;-77
2022/10/26 02:18:40;;;;;;;10.03;4.57;;;;;;;;;;5046972;28;20217;-77
2022/10/26 02:21:09;;;;;;;6.63;3.77;;;;;;;;;;5048775;28;20727;-76
2022/10/26 02:23:36;;;;;;;10.80;4.90;;;;;;;;;;5044089;28;20175;-76
2022/10/26 02:26:05;;;;;;;9.63;4.23;;;;;;;;;;5030237;28;20217;-78
2022/10/26 02:28:34;;;;;;;6.77;4.23;;;;;;;;;;5040519;28;20190;-76
2022/10/26 02:31:02;;;;;;;6.30;3.70;;;;;;;;;;5048343;28;20188;-77
2022/10/26 02:33:30;;;;;;;6.13;4.00;;;;;;;;;;5048210;28;20565;-76
2022/10/26 02:35:58;;;;;;;6.90;4.10;;;;;;;;;;5047892;28;20216;-76
2022/10/26 02:38:25;;;;;;;6.97;4.50;;;;;;;;;;5047950;28;20274;-76
2022/10/26 02:40:51;;;;;;;7.23;4.03;;;;;;;;;;5047820;28;20189;-76
2022/10/26 02:43:20;;;;;;;8.00;4.10;;;;;;;;;;5040930;28;20182;-77
2022/10/26 02:45:48;;;;;;;8.13;4.07;;;;;;;;;;5046340;28;20209;-79
2022/10/26 02:48:15;;;;;;;7.70;3.40;;;;;;;;;;5044576;28;20214;-76
2022/10/26 02:51:01;;;;;;;5.97;4.10;;;;;;;;;;5043098;28;20190;-77
2022/10/26 02:53:33;;;;;;;8.93;4.23;;;;;;;;;;5039038;28;20681;-80
2022/10/26 02:56:02;;;;;;;6.90;4.73;;;;;;;;;;5043683;28;20838;-76
2022/10/26 02:58:30;;;;;;;6.57;4.00;;;;;;;;;;5045179;28;20683;-78
2022/10/26 03:00:57;;;;;;;6.43;4.40;;;;;;;;;;5037014;28;20183;-77
2022/10/26 03:03:23;;;;;;;5.30;4.37;;;;;;;;;;5032296;28;20232;-79
2022/10/26 03:05:49;;;;;;;9.73;4.67;;;;;;;;;;5043062;28;20259;-77
2022/10/26 03:08:16;;;;;;;6.13;4.20;;;;;;;;;;5046786;28;20200;-77
2022/10/26 03:10:43;;;;;;;7.47;4.20;;;;;;;;;;5046010;28;20893;-75
2022/10/26 03:13:10;;;;;;;5.60;4.23;;;;;;;;;;5044928;28;20185;-76
2022/10/26 03:15:37;;;;;;;10.17;4.67;;;;;;;;;;5033225;28;20206;-76
2022/10/26 03:18:03;;;;;;;9.23;4.70;;;;;;;;;;5043937;28;20207;-77
2022/10/26 03:20:29;;;;;;;6.30;4.73;;;;;;;;;;5045987;28;20194;-76
2022/10/26 03:22:55;;;;;;;7.20;5.50;;;;;;;;;;5045914;28;20192;-78
2022/10/26 03:25:22;;;;;;;6.70;4.87;;;;;;;;;;5045786;28;20197;-77
2022/10/26 03:27:55;;;;;;;6.53;4.20;;;;;;;;;;5046990;28;20235;-77
2022/10/26 03:30:22;;;;;;;7.13;3.67;;;;;;;;;;5033966;28;20193;-77
2022/10/26 03:32:48;;;;;;;7.77;4.00;;;;;;;;;;5055229;28;20208;-77
2022/10/26 03:35:14;;;;;;;5.43;3.40;;;;;;;;;;5037936;28;20229;-76
2022/10/26 03:37:40;;;;;;;5.23;3.43;;;;;;;;;;5037929;28;20204;-77
2022/10/26 03:40:07;;;;;;;9.33;4.17;;;;;;;;;;5045136;28;20184;-80
2022/10/26 03:42:33;;;;;;;5.10;3.60;;;;;;;;;;5040215;28;20181;-77
2022/10/26 03:44:59;;;;;;;7.33;3.63;;;;;;;;;;5037830;28;20212;-78
2022/10/26 03:47:25;;;;;;;4.80;3.30;;;;;;;;;;5049768;28;20177;-78
2022/10/26 03:49:52;;;;;;;4.57;3.63;;;;;;;;;;5026101;28;20193;-76
2022/10/26 03:52:18;;;;;;;6.73;3.70;;;;;;;;;;5047104;28;20221;-78
2022/10/26 03:54:44;;;;;;;4.93;3.33;;;;;;;;;;5046977;28;20713;-77
2022/10/26 03:57:10;;;;;;;7.17;3.83;;;;;;;;;;5045561;28;20190;-76
2022/10/26 03:59:36;;;;;;;5.30;3.73;;;;;;;;;;5051381;28;20644;-77
2022/10/26 04:02:02;;;;;;;6.43;3.70;;;;;;;;;;5035165;28;20216;-76
2022/10/26 04:04:28;;;;;;;7.37;3.80;;;;;;;;;;5045140;28;20193;-75
2022/10/26 04:06:54;;;;;;;7.23;4.10;;;;;;;;;;5038627;28;20194;-75
2022/10/26 04:09:21;;;;;;;8.23;4.03;;;;;;;;;;5041921;28;20633;-76
2022/10/26 04:11:47;;;;;;;8.60;3.90;;;;;;;;;;5042997;28;20189;-77
2022/10/26 04:14:13;;;;;;;7.50;4.00;;;;;;;;;;5047390;28;20432;-76
2022/10/26 04:16:39;;;;;;;4.53;3.40;;;;;;;;;;5050428;28;20203;-77
2022/10/26 04:19:05;;;;;;;6.80;3.60;;;;;;;;;;5050645;28;20201;-77
2022/10/26 04:21:32;;;;;;;6.13;4.00;;;;;;;;;;5042437;28;20230;-76
2022/10/26 04:23:58;;;;;;;6.73;3.90;;;;;;;;;;5050816;28;20159;-76
2022/10/26 04:26:24;;;;;;;7.10;4.30;;;;;;;;;;5050213;28;20185;-78
2022/10/26 04:28:50;;;;;;;8.00;4.03;;;;;;;;;;5050501;28;20178;-77
2022/10/26 04:31:16;;;;;;;8.40;4.30;;;;;;;;;;5050674;28;20201;-77
2022/10/26 04:33:42;;;;;;;3.93;3.60;;;;;;;;;;5050505;28;20253;-75
2022/10/26 04:36:09;;;;;;;8.13;4.10;;;;;;;;;;5047409;28;20214;-76
2022/10/26 04:38:35;;;;;;;5.50;3.50;;;;;;;;;;5046335;28;20531;-77
2022/10/26 04:41:01;;;;;;;6.23;4.20;;;;;;;;;;5045815;28;20186;-76
2022/10/26 04:43:27;;;;;;;7.33;4.00;;;;;;;;;;5032908;28;20324;-76
2022/10/26 04:45:57;;;;;;;7.93;4.63;;;;;;;;;;5049136;28;20907;-76
2022/10/26 04:48:23;;;;;;;6.67;4.00;;;;;;;;;;5045449;28;20210;-75
2022/10/26 04:50:49;;;;;;;8.50;4.47;;;;;;;;;;5033550;28;20236;-76
2022/10/26 04:53:15;;;;;;;5.33;4.07;;;;;;;;;;5042264;28;20189;-75
2022/10/26 04:55:41;;;;;;;6.50;3.37;;;;;;;;;;5040855;28;20252;-76
2022/10/26 04:58:08;;;;;;;5.63;3.93;;;;;;;;;;5046313;28;20186;-77
2022/10/26 05:00:34;;;;;;;5.10;3.50;;;;;;;;;;5049575;28;20240;-78
2022/10/26 05:03:01;;;;;;;7.87;4.20;;;;;;;;;;5043704;28;20186;-78
2022/10/26 05:05:27;;;;;;;10.20;5.63;;;;;;;;;;5044360;28;20198;-77
2022/10/26 05:07:56;;;;;;;7.80;4.70;;;;;;;;;;5034381;28;20198;-76
2022/10/26 05:10:23;;;;;;;6.53;4.07;;;;;;;;;;5034243;28;20187;-78
2022/10/26 05:12:53;;;;;;;7.07;3.90;;;;;;;;;;5030168;28;20175;-78
2022/10/26 05:15:19;;;;;;;6.43;4.20;;;;;;;;;;5040489;28;20221;-76
2022/10/26 05:17:46;;;;;;;6.37;3.90;;;;;;;;;;5049430;28;20170;-76
2022/10/26 05:20:13;;;;;;;8.80;4.40;;;;;;;;;;5056013;28;20191;-77
2022/10/26 05:22:39;;;;;;;11.23;5.97;;;;;;;;;;5047701;28;20438;-77
2022/10/26 05:25:06;;;;;;;7.30;4.50;;;;;;;;;;5038609;28;20720;-77
2022/10/26 05:27:32;;;;;;;8.63;4.50;;;;;;;;;;5042855;28;20230;-78
2022/10/26 05:29:58;;;;;;;7.47;4.10;;;;;;;;;;5044874;28;20189;-78
2022/10/26 05:32:24;;;;;;;9.90;4.53;;;;;;;;;;5047669;28;20239;-79
2022/10/26 05:34:50;;;;;;;9.83;4.63;;;;;;;;;;5045659;28;20708;-78
2022/10/26 05:37:16;;;;;;;8.77;4.67;;;;;;;;;;5046533;28;20178;-79
2022/10/26 05:39:43;;;;;;;5.20;3.90;;;;;;;;;;5048183;28;20186;-77
2022/10/26 05:42:09;;;;;;;9.10;4.60;;;;;;;;;;5044342;28;20185;-79
2022/10/26 05:44:35;;;;;;;8.47;4.03;;;;;;;;;;5040154;28;20204;-82
2022/10/26 05:47:01;;;;;;;7.63;4.33;;;;;;;;;;5047730;28;20303;-80
2022/10/26 05:49:27;;;;;;;8.23;4.03;;;;;;;;;;5046409;28;20809;-81
2022/10/26 05:51:53;;;;;;;7.50;4.47;;;;;;;;;;5046622;28;20190;-78
2022/10/26 05:54:19;;;;;;;5.03;4.13;;;;;;;;;;5046753;28;20202;-79
2022/10/26 05:56:46;;;;;;;8.60;4.90;;;;;;;;;;5046300;28;20744;-79
2022/10/26 05:59:13;;;;;;;5.60;3.90;;;;;;;;;;5037950;28;20194;-80
2022/10/26 06:01:48;;;;;;;7.83;3.80;;;;;;;;;;5037526;28;20236;-78
2022/10/26 06:04:20;;;;;;;6.20;3.60;;;;;;;;;;5040224;28;20202;-78
2022/10/26 06:06:47;;;;;;;5.67;3.40;;;;;;;;;;5041131;28;20190;-78
2022/10/26 06:09:14;;;;;;;6.67;3.43;;;;;;;;;;5044693;28;20182;-82
2022/10/26 06:11:41;;;;;;;5.57;3.27;;;;;;;;;;5045294;28;20198;-79
2022/10/26 06:14:08;;;;;;;8.90;3.77;;;;;;;;;;5041337;28;20721;-77
2022/10/26 06:16:34;;;;;;;10.07;4.50;;;;;;;;;;5028329;28;20627;-77
2022/10/26 06:19:06;;;;;;;8.37;4.60;;;;;;;;;;5038014;28;20304;-77
2022/10/26 06:21:41;;;;;;;6.97;3.97;;;;;;;;;;5048642;28;20219;-79
2022/10/26 06:24:10;;;;;;;6.00;3.77;;;;;;;;;;5020268;28;20212;-78
2022/10/26 06:26:50;;;;;;;5.93;3.63;;;;;;;;;;5039926;28;20758;-78
2022/10/26 06:29:22;;;;;;;8.23;4.40;;;;;;;;;;5045411;28;20186;-78
2022/10/26 06:31:48;;;;;;;8.93;4.50;;;;;;;;;;5047035;28;20213;-78
2022/10/26 06:34:18;;;;;;;12.40;5.27;;;;;;;;;;5049751;28;20194;-78
2022/10/26 06:36:46;;;;;;;8.27;4.20;;;;;;;;;;5050176;28;20212;-78
2022/10/26 06:39:12;;;;;;;7.07;4.13;;;;;;;;;;5049531;28;20280;-78
2022/10/26 06:41:39;;;;;;;8.33;4.17;;;;;;;;;;5040247;28;20583;-78
2022/10/26 06:44:05;;;;;;;9.70;4.07;;;;;;;;;;5040863;28;20189;-78
2022/10/26 06:46:48;;;;;;;9.77;4.57;;;;;;;;;;5047032;28;20189;-79
2022/10/26 06:49:21;;;;;;;8.17;4.23;;;;;;;;;;5033416;28;20289;-77
2022/10/26 06:52:14;;;;;;;10.97;4.80;;;;;;;;;;5049431;28;20209;-77
2022/10/26 06:54:48;;;;;;;9.83;5.00;;;;;;;;;;5046401;28;20287;-78
2022/10/26 06:57:16;;;;;;;10.37;5.30;;;;;;;;;;5040633;28;20193;-78
2022/10/26 06:59:46;;;;;;;10.90;5.10;;;;;;;;;;5045793;28;20312;-78
2022/10/26 07:02:13;;;;;;;9.47;4.53;;;;;;;;;;5040398;28;20684;-78
2022/10/26 07:04:40;;;;;;;6.83;4.00;;;;;;;;;;5024785;28;20197;-79
2022/10/26 07:07:08;;;;;;;5.77;3.07;;;;;;;;;;5044987;28;20285;-78
2022/10/26 07:09:34;;;;;;;5.17;2.77;;;;;;;;;;5041646;28;20270;-78
2022/10/26 07:12:01;;;;;;;7.40;3.10;;;;;;;;;;5039108;28;20243;-78
2022/10/26 07:14:27;;;;;;;7.57;3.37;;;;;;;;;;5046519;28;20263;-77
2022/10/26 07:16:55;;;;;;;5.00;2.60;;;;;;;;;;5047238;28;20209;-78
2022/10/26 07:19:22;;;;;;;5.53;2.87;;;;;;;;;;5044815;28;20174;-78
2022/10/26 07:21:49;;;;;;;5.63;2.90;;;;;;;;;;5035701;28;20666;-79
2022/10/26 07:24:15;;;;;;;5.60;2.53;;;;;;;;;;5041345;28;20202;-78
2022/10/26 07:26:44;;;;;;;4.33;2.43;;;;;;;;;;5018551;28;20674;-78
2022/10/26 07:29:10;;;;;;;4.90;2.40;;;;;;;;;;5035321;28;20265;-79
2022/10/26 07:31:46;;;;;;;4.27;2.60;;;;;;;;;;5029676;28;20190;-79
2022/10/26 07:34:21;;;;;;;8.73;2.60;;;;;;;;;;5010298;28;20221;-78
2022/10/26 07:36:58;;;;;;;3.10;2.40;;;;;;;;;;5027068;28;20309;-78
2022/10/26 07:39:25;;;;;;;4.07;2.20;;;;;;;;;;4994968;28;20190;-79
2022/10/26 07:41:52;;;;;;;2.60;2.20;;;;;;;;;;5044229;28;20190;-78
2022/10/26 07:44:21;;;;;;;4.57;2.60;;;;;;;;;;5040715;28;20232;-78
2022/10/26 07:46:48;;;;;;;3.97;2.30;;;;;;;;;;5029373;28;20224;-76
2022/10/26 07:49:15;;;;;;;4.97;2.70;;;;;;;;;;5052137;28;20181;-78
2022/10/26 07:51:42;;;;;;;6.57;3.00;;;;;;;;;;5034651;28;20720;-78
2022/10/26 07:54:09;;;;;;;7.83;2.93;;;;;;;;;;5047776;28;20188;-78
2022/10/26 07:56:36;;;;;;;4.90;2.43;;;;;;;;;;5033750;28;20217;-78
2022/10/26 07:59:03;;;;;;;3.97;2.47;;;;;;;;;;5042325;28;20678;-78
2022/10/26 08:01:30;;;;;;;4.93;2.40;;;;;;;;;;5044025;28;20215;-80
2022/10/26 08:03:57;;;;;;;4.87;2.20;;;;;;;;;;5033425;28;20180;-75
2022/10/26 08:06:24;;;;;;;6.10;2.80;;;;;;;;;;5046649;28;20792;-83
2022/10/26 08:08:51;;;;;;;4.37;2.87;;;;;;;;;;5034366;28;20200;-82
2022/10/26 08:11:18;;;;;;;3.33;2.40;;;;;;;;;;5050384;28;20181;-83
2022/10/26 08:13:44;;;;;;;3.50;2.10;;;;;;;;;;5051252;28;20197;-81
2022/10/26 08:16:12;;;;;;;5.53;2.50;;;;;;;;;;5051229;28;20308;-82
2022/10/26 08:18:38;;;;;;;4.53;2.57;;;;;;;;;;5052641;28;20193;-81
2022/10/26 08:21:06;;;;;;;6.57;2.40;;;;;;;;;;5032968;28;20171;-81
2022/10/26 08:23:36;;;;;;;5.40;2.20;;;;;;;;;;5032642;28;20175;-81
2022/10/26 08:26:03;;;;;;;4.13;2.47;;;;;;;;;;5045804;28;20218;-81
2022/10/26 08:28:30;;;;;;;4.97;2.73;;;;;;;;;;5046710;28;20179;-80
2022/10/26 08:30:57;;;;;;;3.37;2.27;;;;;;;;;;5040892;28;20182;-81
2022/10/26 08:33:24;;;;;;;6.30;2.23;;;;;;;;;;5045496;28;20236;-81
2022/10/26 08:36:05;;;;;;;5.10;2.23;;;;;;;;;;5043176;28;20234;-81
2022/10/26 08:38:32;;;;;;;6.03;2.30;;;;;;;;;;5058134;28;20177;-81
2022/10/26 08:40:59;;;;;;;5.27;2.40;;;;;;;;;;5032405;28;20179;-82
2022/10/26 08:43:39;;;;;;;6.47;2.23;;;;;;;;;;5037048;28;20193;-81
2022/10/26 08:46:17;;;;;;;5.33;2.30;;;;;;;;;;5045737;28;20703;-80
2022/10/26 08:48:51;;;;;;;3.17;2.00;;;;;;;;;;5045591;28;20181;-81
2022/10/26 08:51:19;;;;;;;4.17;2.30;;;;;;;;;;5046190;28;20240;-83
2022/10/26 08:53:52;;;;;;;7.67;2.60;;;;;;;;;;5051080;28;20224;-81
2022/10/26 08:56:19;;;;;;;6.90;2.50;;;;;;;;;;5033979;28;20878;-82
2022/10/26 08:58:51;;;;;;;4.67;2.30;;;;;;;;;;5051482;28;20176;-81
2022/10/26 09:01:18;;;;;;;5.57;2.10;;;;;;;;;;5048162;28;20665;-81
2022/10/26 09:03:45;;;;;;;3.23;2.30;;;;;;;;;;5044702;28;20181;-81
2022/10/26 09:06:14;;;;;;;6.27;2.43;;;;;;;;;;5042813;28;20202;-81
2022/10/26 09:08:59;;;;;;;5.07;2.53;;;;;;;;;;5043907;28;20198;-81
2022/10/26 09:11:37;;;;;;;5.13;2.10;;;;;;;;;;5041347;28;20186;-81
2022/10/26 09:14:07;;;;;;;4.47;2.37;;;;;;;;;;5041747;28;20187;-81
2022/10/26 09:16:37;;;;;;;6.23;2.50;;;;;;;;;;5032013;28;20621;-81
2022/10/26 09:19:23;;;;;;;5.93;2.50;;;;;;;;;;5050237;28;20166;-80
2022/10/26 09:21:54;;;;;;;4.60;2.53;;;;;;;;;;5049719;28;20188;-80
2022/10/26 09:24:25;;;;;;;2.93;2.20;;;;;;;;;;5046368;28;20222;-80
2022/10/26 09:27:04;;;;;;;6.10;2.90;;;;;;;;;;5037228;28;20238;-81
2022/10/26 09:29:34;;;;;;;4.60;2.77;;;;;;;;;;5052139;28;20264;-81
2022/10/26 09:32:02;;;;;;;5.03;2.47;;;;;;;;;;5047928;28;20618;-80
2022/10/26 09:34:32;;;;;;;4.67;2.50;;;;;;;;;;5039373;28;20622;-80
2022/10/26 09:36:59;;;;;;;4.83;2.50;;;;;;;;;;5039266;28;20214;-84
2022/10/26 09:39:32;;;;;;;6.97;3.00;;;;;;;;;;5041357;28;20285;-82
2022/10/26 09:42:02;;;;;;;5.40;2.50;;;;;;;;;;5042058;28;20216;-80
2022/10/26 09:44:38;;;;;;;4.77;2.87;;;;;;;;;;5036862;28;20584;-80
2022/10/26 09:47:09;;;;;;;5.70;2.80;;;;;;;;;;5043471;28;20194;-83
2022/10/26 09:49:41;;;;;;;7.90;2.63;;;;;;;;;;5032706;28;20190;-81
2022/10/26 09:52:11;;;;;;;7.70;2.90;;;;;;;;;;5044592;28;20244;-80
2022/10/26 09:54:38;;;;;;;4.90;2.70;;;;;;;;;;5037495;28;20264;-80
2022/10/26 09:57:06;;;;;;;5.33;2.70;;;;;;;;;;5026474;28;21294;-80
2022/10/26 09:59:34;;;;;;;5.37;2.50;;;;;;;;;;5044565;28;20261;-82
2022/10/26 10:02:20;;;;;;;4.47;2.70;;;;;;;;;;5047264;28;20621;-80
2022/10/26 10:04:47;;;;;;;6.87;2.93;;;;;;;;;;5044390;28;20212;-80
2022/10/26 10:07:17;;;;;;;7.97;3.00;;;;;;;;;;5043873;28;20214;-83
2022/10/26 10:09:44;;;;;;;7.10;2.80;;;;;;;;;;5040529;28;20209;-82
2022/10/26 10:12:19;;;;;;;3.90;2.70;;;;;;;;;;5041974;28;20273;-81
2022/10/26 10:14:56;;;;;;;4.47;2.67;;;;;;;;;;5042478;28;20719;-81
2022/10/26 10:17:26;;;;;;;5.60;2.50;;;;;;;;;;5027715;28;20190;-81
2022/10/26 10:19:53;;;;;;;4.63;2.70;;;;;;;;;;5031815;28;20612;-80
2022/10/26 10:22:21;;;;;;;6.07;2.90;;;;;;;;;;5032385;28;20182;-81
2022/10/26 10:24:58;;;;;;;6.47;2.50;;;;;;;;;;5046524;28;20693;-82
2022/10/26 10:27:25;;;;;;;5.53;2.63;;;;;;;;;;5040852;28;20261;-81
2022/10/26 10:29:54;;;;;;;7.37;3.00;;;;;;;;;;5047453;28;20184;-81
2022/10/26 10:32:20;;;;;;;5.43;2.50;;;;;;;;;;5047759;28;20205;-82
2022/10/26 10:34:51;;;;;;;4.53;2.60;;;;;;;;;;5045162;28;20275;-81
2022/10/26 10:37:20;;;;;;;3.87;2.50;;;;;;;;;;5047261;28;20223;-81
2022/10/26 10:39:50;;;;;;;7.70;2.90;;;;;;;;;;5041471;28;20269;-80
2022/10/26 10:42:20;;;;;;;6.27;2.90;;;;;;;;;;5041413;28;20198;-83
2022/10/26 10:44:49;;;;;;;4.83;2.60;;;;;;;;;;5042616;28;20206;-81
2022/10/26 10:47:33;;;;;;;7.80;2.87;;;;;;;;;;5039994;28;20208;-80
2022/10/26 10:50:02;;;;;;;3.20;2.37;;;;;;;;;;5039970;28;20185;-80
2022/10/26 10:52:33;;;;;;;5.27;2.73;;;;;;;;;;5037819;28;20268;-81
2022/10/26 10:55:15;;;;;;;7.50;2.90;;;;;;;;;;5041148;28;20284;-81
2022/10/26 10:57:52;;;;;;;7.47;2.67;;;;;;;;;;5036087;28;20913;-83
2022/10/26 11:00:19;;;;;;;6.73;2.50;;;;;;;;;;5040767;28;20182;-79
2022/10/26 11:03:05;;;;;;;5.93;3.03;;;;;;;;;;5045644;28;20182;-81
2022/10/26 11:05:46;;;;;;;7.27;2.67;;;;;;;;;;5046909;28;20323;-80
2022/10/26 11:08:20;;;;;;;5.43;2.80;;;;;;;;;;5040039;28;20251;-79
2022/10/26 11:11:07;;;;;;;4.20;2.70;;;;;;;;;;5050238;28;20245;-83
2022/10/26 11:13:37;;;;;;;7.33;3.03;;;;;;;;;;4996537;28;20273;-80
2022/10/26 11:16:06;;;;;;;7.33;2.97;;;;;;;;;;5047972;28;20205;-81
2022/10/26 11:18:59;;;;;;;4.70;2.80;;;;;;;;;;5034866;28;20229;-80
2022/10/26 11:21:30;;;;;;;5.20;2.50;;;;;;;;;;5039547;28;20197;-83
2022/10/26 11:24:12;;;;;;;8.00;2.90;;;;;;;;;;5035369;28;20182;-80
2022/10/26 11:26:45;;;;;;;3.63;2.77;;;;;;;;;;5041618;28;20197;-81
2022/10/26 11:29:18;;;;;;;6.57;2.83;;;;;;;;;;5037847;28;20224;-80
2022/10/26 11:31:50;;;;;;;5.73;2.87;;;;;;;;;;5042555;28;20178;-80
2022/10/26 11:34:25;;;;;;;8.70;3.07;;;;;;;;;;5042154;28;20202;-81
2022/10/26 11:36:55;;;;;;;7.17;2.97;;;;;;;;;;5047359;28;20237;-80
2022/10/26 11:39:28;;;;;;;8.10;2.93;;;;;;;;;;5024951;28;20182;-80
2022/10/26 11:42:06;;;;;;;6.40;2.60;;;;;;;;;;5042536;28;20193;-80
2022/10/26 11:44:33;;;;;;;5.87;2.43;;;;;;;;;;5045160;28;20251;-80
2022/10/26 11:47:13;;;;;;;4.63;2.80;;;;;;;;;;5043202;28;20259;-80
2022/10/26 11:49:39;;;;;;;7.13;2.70;;;;;;;;;;5037908;28;20201;-80
2022/10/26 11:52:06;;;;;;;5.47;2.80;;;;;;;;;;5044480;28;20194;-81
2022/10/26 11:54:37;;;;;;;4.00;2.60;;;;;;;;;;5039430;28;20246;-80
2022/10/26 11:57:04;;;;;;;5.70;2.50;;;;;;;;;;5022756;28;20215;-77
2022/10/26 11:59:33;;;;;;;6.60;2.80;;;;;;;;;;5042411;28;20186;-75
2022/10/26 12:02:02;;;;;;;6.57;2.80;;;;;;;;;;5037654;28;20190;-86
2022/10/26 12:04:31;;;;;;;5.70;2.83;;;;;;;;;;5041886;28;20202;-80
2022/10/26 12:06:59;;;;;;;5.27;2.90;;;;;;;;;;5046029;28;20190;-79
2022/10/26 12:09:29;;;;;;;4.87;2.77;;;;;;;;;;5044976;28;20296;-80
2022/10/26 12:12:00;;;;;;;6.03;2.47;;;;;;;;;;5014184;28;20185;-79
2022/10/26 12:14:30;;;;;;;6.07;3.07;;;;;;;;;;5043064;28;20205;-78
2022/10/26 12:17:10;;;;;;;7.90;2.90;;;;;;;;;;5048630;28;20256;-82
2022/10/26 12:19:40;;;;;;;5.13;2.63;;;;;;;;;;5036151;28;20173;-78
2022/10/26 12:22:09;;;;;;;4.53;2.60;;;;;;;;;;5043581;28;20189;-80
2022/10/26 12:24:42;;;;;;;5.83;2.50;;;;;;;;;;5024842;28;20206;-76
2022/10/26 12:27:28;;;;;;;7.23;2.50;;;;;;;;;;5038817;28;20194;-81
2022/10/26 12:30:22;;;;;;;6.37;2.50;;;;;;;;;;5047523;28;20216;-79
2022/10/26 12:32:50;;;;;;;5.03;2.30;;;;;;;;;;5030635;28;20546;-79
2022/10/26 12:35:28;;;;;;;4.63;2.53;;;;;;;;;;5046139;28;20218;-79
2022/10/26 12:37:55;;;;;;;6.43;2.53;;;;;;;;;;5046026;28;20263;-79
2022/10/26 12:40:33;;;;;;;5.87;2.83;;;;;;;;;;5047686;28;20185;-79
2022/10/26 12:43:20;;;;;;;6.10;2.93;;;;;;;;;;5050288;28;20392;-79
2022/10/26 12:46:06;;;;;;;5.57;2.73;;;;;;;;;;5030206;28;20521;-79
2022/10/26 12:48:46;;;;;;;7.33;2.73;;;;;;;;;;5048663;28;20199;-79
2022/10/26 12:51:25;;;;;;;6.83;2.60;;;;;;;;;;5057572;28;20193;-79
2022/10/26 12:53:55;;;;;;;6.77;2.90;;;;;;;;;;5061785;28;20297;-74
2022/10/26 12:56:27;;;;;;;6.37;2.67;;;;;;;;;;5035461;28;20216;-75
2022/10/26 12:58:54;;;;;;;7.00;2.30;;;;;;;;;;5038196;28;20190;-75
2022/10/26 13:01:33;;;;;;;6.23;2.50;;;;;;;;;;5039270;28;20329;-74
2022/10/26 13:03:59;;;;;;;5.60;2.30;;;;;;;;;;5045850;28;20556;-74
2022/10/26 13:06:35;;;;;;;5.43;2.43;;;;;;;;;;5038108;28;20189;-76
2022/10/26 13:09:07;;;;;;;6.40;2.40;;;;;;;;;;5041873;28;20194;-73
2022/10/26 13:11:43;;;;;;;5.13;2.60;;;;;;;;;;5045023;28;20804;-76
2022/10/26 13:14:36;;;;;;;5.00;2.37;;;;;;;;;;5042850;28;20216;-75
2022/10/26 13:17:22;;;;;;;4.70;2.20;;;;;;;;;;5037714;28;20239;-76
2022/10/26 13:19:49;;;;;;;3.90;2.47;;;;;;;;;;5043512;28;20194;-76
2022/10/26 13:22:19;;;;;;;6.30;2.80;;;;;;;;;;5036107;28;20549;-75
2022/10/26 13:24:51;;;;;;;6.00;2.60;;;;;;;;;;5050333;28;20692;-75
2022/10/26 13:27:18;;;;;;;6.73;2.40;;;;;;;;;;5045329;28;20199;-76
2022/10/26 13:30:03;;;;;;;6.80;2.50;;;;;;;;;;5046017;28;20642;-76
2022/10/26 13:32:41;;;;;;;5.93;2.70;;;;;;;;;;5041345;28;20175;-75
2022/10/26 13:35:14;;;;;;;4.13;2.47;;;;;;;;;;5045031;28;20217;-76
2022/10/26 13:37:46;;;;;;;6.90;2.50;;;;;;;;;;5040609;28;20186;-75
2022/10/26 13:40:17;;;;;;;5.33;2.53;;;;;;;;;;5048592;28;20470;-76
2022/10/26 13:42:56;;;;;;;4.53;2.20;;;;;;;;;;5042778;28;20590;-75
2022/10/26 13:45:27;;;;;;;4.80;2.40;;;;;;;;;;5046823;28;20202;-76
2022/10/26 13:48:12;;;;;;;7.17;2.50;;;;;;;;;;5045708;28;20201;-74
2022/10/26 13:50:45;;;;;;;5.70;2.20;;;;;;;;;;5044153;28;20194;-75
2022/10/26 13:53:22;;;;;;;4.43;2.30;;;;;;;;;;5052241;28;20886;-75
2022/10/26 13:56:03;;;;;;;6.60;2.83;;;;;;;;;;5042051;28;20677;-75
2022/10/26 13:58:42;;;;;;;4.50;2.40;;;;;;;;;;5047583;28;20258;-75
2022/10/26 14:01:10;;;;;;;5.57;2.47;;;;;;;;;;5041275;28;20242;-74
2022/10/26 14:03:37;;;;;;;4.63;2.40;;;;;;;;;;5047263;28;20656;-77
2022/10/26 14:06:14;;;;;;;5.03;2.23;;;;;;;;;;5030837;28;20780;-75
2022/10/26 14:08:42;;;;;;;4.80;2.33;;;;;;;;;;5047528;28;20203;-75
2022/10/26 14:11:13;;;;;;;5.10;2.40;;;;;;;;;;5042851;28;20212;-75
2022/10/26 14:13:39;;;;;;;7.87;3.00;;;;;;;;;;5043940;28;20696;-75
2022/10/26 14:16:09;;;;;;;4.40;2.63;;;;;;;;;;5047717;28;20210;-78
2022/10/26 14:18:36;;;;;;;6.90;2.53;;;;;;;;;;5046906;28;20210;-75
2022/10/26 14:21:18;;;;;;;5.50;2.30;;;;;;;;;;5046916;28;20193;-74
2022/10/26 14:23:54;;;;;;;6.93;2.53;;;;;;;;;;5045028;28;20826;-74
2022/10/26 14:26:29;;;;;;;4.57;2.43;;;;;;;;;;5034406;28;20186;-75
2022/10/26 14:28:59;;;;;;;8.40;2.60;;;;;;;;;;5029071;28;20181;-74
2022/10/26 14:31:30;;;;;;;4.20;2.40;;;;;;;;;;5047123;28;20672;-77
2022/10/26 14:33:58;;;;;;;5.83;2.50;;;;;;;;;;5045493;28;20181;-74
2022/10/26 14:36:33;;;;;;;5.07;2.80;;;;;;;;;;5031407;28;20238;-76
2022/10/26 14:39:06;;;;;;;5.03;2.40;;;;;;;;;;5037316;28;20181;-74
2022/10/26 14:41:34;;;;;;;6.57;2.50;;;;;;;;;;5047094;28;20240;-76
2022/10/26 14:44:01;;;;;;;5.20;2.63;;;;;;;;;;5046768;28;20181;-75
2022/10/26 14:46:32;;;;;;;6.53;2.40;;;;;;;;;;5042477;28;20196;-73
2022/10/26 14:49:01;;;;;;;6.97;2.63;;;;;;;;;;5043141;28;20323;-81
2022/10/26 14:51:29;;;;;;;3.97;2.20;;;;;;;;;;5048074;28;20182;-75
2022/10/26 14:53:57;;;;;;;5.37;2.77;;;;;;;;;;5045303;28;20284;-75
2022/10/26 14:56:36;;;;;;;4.43;2.17;;;;;;;;;;5037074;28;20244;-75
2022/10/26 14:59:18;;;;;;;5.60;2.60;;;;;;;;;;5044011;28;20197;-76
2022/10/26 15:01:53;;;;;;;4.83;2.57;;;;;;;;;;5041111;28;20197;-76